createdAt,value
2018-07-22T00:00:58.808Z,0.00
2018-07-22T00:01:58.991Z,0.00
2018-07-22T00:02:59.200Z,0.00
2018-07-22T00:03:59.379Z,0.00
2018-07-22T00:04:59.556Z,0.00
2018-07-22T00:05:59.739Z,0.00
2018-07-22T00:06:59.921Z,0.00
2018-07-22T00:08:00.659Z,0.00
2018-07-22T00:09:00.212Z,0.00
2018-07-22T00:10:00.390Z,0.00
2018-07-22T00:11:00.572Z,0.00
2018-07-22T00:12:00.761Z,0.00
2018-07-22T00:13:00.942Z,0.00
2018-07-22T00:14:01.140Z,0.00
2018-07-22T00:15:01.299Z,0.00
2018-07-22T00:16:01.478Z,0.00
2018-07-22T00:17:01.657Z,0.00
2018-07-22T00:18:01.832Z,0.00
2018-07-22T00:19:02.010Z,0.00
2018-07-22T00:20:02.185Z,0.00
2018-07-22T00:21:02.360Z,0.00
2018-07-22T00:22:02.537Z,0.00
2018-07-22T00:23:02.716Z,0.00
2018-07-22T00:24:02.894Z,0.00
2018-07-22T00:25:03.075Z,0.00
2018-07-22T00:26:03.254Z,0.00
2018-07-22T00:27:03.439Z,0.00
2018-07-22T00:28:03.616Z,0.00
2018-07-22T00:29:03.804Z,0.00
2018-07-22T00:30:03.964Z,0.00
2018-07-22T00:31:04.148Z,0.00
2018-07-22T00:32:04.325Z,0.00
2018-07-22T00:33:04.502Z,0.00
2018-07-22T00:34:04.682Z,0.00
2018-07-22T00:35:04.850Z,0.00
2018-07-22T00:36:05.026Z,0.00
2018-07-22T00:37:05.203Z,0.00
2018-07-22T00:38:05.384Z,0.00
2018-07-22T00:39:05.559Z,0.00
2018-07-22T00:40:05.735Z,0.00
2018-07-22T00:41:05.909Z,0.00
2018-07-22T00:42:06.088Z,0.00
2018-07-22T00:43:06.264Z,0.00
2018-07-22T00:44:06.439Z,0.00
2018-07-22T00:45:06.621Z,0.00
2018-07-22T00:46:06.797Z,0.00
2018-07-22T00:47:06.973Z,0.00
2018-07-22T00:48:07.151Z,0.00
2018-07-22T00:49:07.321Z,0.00
2018-07-22T00:50:07.501Z,0.00
2018-07-22T00:51:07.711Z,0.00
2018-07-22T00:52:07.902Z,0.00
2018-07-22T00:53:08.080Z,0.00
2018-07-22T00:54:08.251Z,0.00
2018-07-22T00:55:08.428Z,0.00
2018-07-22T00:56:08.599Z,0.00
2018-07-22T00:57:08.775Z,0.00
2018-07-22T00:58:08.946Z,0.00
2018-07-22T00:59:09.125Z,0.00
2018-07-22T01:00:09.399Z,0.00
2018-07-22T01:01:09.489Z,0.00
2018-07-22T01:02:09.675Z,0.00
2018-07-22T01:03:09.849Z,0.00
2018-07-22T01:04:10.031Z,0.00
2018-07-22T01:05:10.216Z,0.00
2018-07-22T01:06:10.389Z,0.00
2018-07-22T01:07:10.565Z,0.00
2018-07-22T01:08:10.744Z,0.00
2018-07-22T01:09:10.919Z,0.00
2018-07-22T01:10:11.098Z,0.00
2018-07-22T01:11:11.273Z,0.00
2018-07-22T01:12:11.450Z,0.00
2018-07-22T01:13:11.627Z,0.00
2018-07-22T01:14:11.802Z,0.00
2018-07-22T01:15:11.974Z,0.00
2018-07-22T01:16:12.155Z,0.00
2018-07-22T01:17:12.329Z,0.00
2018-07-22T01:18:12.504Z,0.00
2018-07-22T01:19:12.687Z,0.00
2018-07-22T01:20:12.861Z,0.00
2018-07-22T01:21:13.037Z,0.00
2018-07-22T01:22:13.216Z,0.00
2018-07-22T01:23:13.391Z,0.00
2018-07-22T01:24:13.572Z,0.00
2018-07-22T01:25:13.754Z,0.00
2018-07-22T01:26:13.935Z,0.00
2018-07-22T01:27:14.110Z,0.00
2018-07-22T01:28:14.287Z,0.00
2018-07-22T01:29:14.460Z,0.00
2018-07-22T01:30:14.640Z,0.00
2018-07-22T01:31:14.817Z,0.00
2018-07-22T01:32:14.994Z,0.00
2018-07-22T01:33:15.168Z,0.00
2018-07-22T01:34:15.341Z,0.00
2018-07-22T01:35:15.520Z,0.00
2018-07-22T01:36:15.699Z,0.00
2018-07-22T01:37:15.884Z,0.00
2018-07-22T01:38:16.067Z,0.00
2018-07-22T01:39:16.242Z,0.00
2018-07-22T01:40:16.420Z,0.00
2018-07-22T01:41:16.601Z,0.00
2018-07-22T01:42:16.781Z,0.00
2018-07-22T01:43:16.984Z,0.00
2018-07-22T01:44:17.136Z,0.00
2018-07-22T01:45:17.312Z,0.00
2018-07-22T01:46:17.489Z,0.00
2018-07-22T01:47:17.658Z,0.00
2018-07-22T01:48:17.838Z,0.00
2018-07-22T01:49:18.021Z,0.00
2018-07-22T01:50:18.206Z,0.00
2018-07-22T01:51:18.377Z,0.00
2018-07-22T01:52:18.556Z,0.00
2018-07-22T01:53:18.732Z,0.00
2018-07-22T01:54:18.907Z,0.00
2018-07-22T01:55:19.085Z,0.00
2018-07-22T01:56:19.257Z,0.00
2018-07-22T01:57:19.436Z,0.00
2018-07-22T01:58:19.616Z,0.00
2018-07-22T01:59:19.791Z,0.00
2018-07-22T02:00:19.966Z,0.00
2018-07-22T02:01:20.141Z,0.00
2018-07-22T02:02:20.312Z,0.00
2018-07-22T02:03:20.497Z,0.00
2018-07-22T02:04:20.677Z,0.00
2018-07-22T02:05:20.857Z,0.00
2018-07-22T02:06:21.043Z,0.00
2018-07-22T02:07:21.210Z,0.00
2018-07-22T02:08:21.383Z,0.00
2018-07-22T02:09:21.556Z,0.00
2018-07-22T02:10:21.742Z,0.00
2018-07-22T02:11:21.911Z,0.00
2018-07-22T02:12:22.090Z,0.00
2018-07-22T02:13:22.267Z,0.00
2018-07-22T02:14:22.442Z,0.00
2018-07-22T02:15:22.619Z,0.00
2018-07-22T02:16:22.791Z,0.00
2018-07-22T02:17:22.972Z,0.00
2018-07-22T02:18:23.148Z,0.00
2018-07-22T02:19:23.324Z,0.00
2018-07-22T02:20:23.508Z,0.00
2018-07-22T02:21:23.685Z,0.00
2018-07-22T02:22:23.862Z,0.00
2018-07-22T02:23:24.038Z,0.00
2018-07-22T02:24:24.217Z,0.00
2018-07-22T02:25:24.400Z,0.00
2018-07-22T02:26:24.581Z,0.00
2018-07-22T02:27:24.756Z,0.00
2018-07-22T02:28:24.931Z,0.00
2018-07-22T02:29:25.106Z,0.00
2018-07-22T02:30:25.280Z,0.00
2018-07-22T02:31:25.457Z,0.00
2018-07-22T02:32:25.639Z,0.00
2018-07-22T02:33:25.819Z,0.00
2018-07-22T02:34:25.995Z,0.00
2018-07-22T02:35:26.167Z,0.00
2018-07-22T02:36:26.347Z,0.00
2018-07-22T02:37:26.527Z,0.00
2018-07-22T02:38:26.698Z,0.00
2018-07-22T02:39:26.867Z,0.00
2018-07-22T02:40:27.054Z,0.00
2018-07-22T02:41:27.244Z,0.00
2018-07-22T02:42:27.425Z,0.00
2018-07-22T02:43:27.592Z,0.00
2018-07-22T02:44:27.765Z,0.00
2018-07-22T02:45:27.941Z,0.00
2018-07-22T02:46:28.123Z,0.00
2018-07-22T02:47:28.297Z,0.00
2018-07-22T02:48:28.472Z,0.00
2018-07-22T02:49:28.644Z,0.00
2018-07-22T02:50:28.826Z,0.00
2018-07-22T02:51:29.011Z,0.00
2018-07-22T02:52:29.183Z,0.00
2018-07-22T02:53:29.368Z,0.00
2018-07-22T02:54:29.537Z,0.00
2018-07-22T02:55:29.718Z,0.00
2018-07-22T02:56:29.893Z,0.00
2018-07-22T02:57:30.072Z,0.00
2018-07-22T02:58:30.237Z,0.00
2018-07-22T02:59:30.415Z,0.00
2018-07-22T03:00:30.594Z,0.00
2018-07-22T03:01:30.773Z,0.00
2018-07-22T03:02:31.001Z,0.00
2018-07-22T03:03:31.223Z,0.00
2018-07-22T03:04:31.310Z,0.00
2018-07-22T03:05:31.494Z,0.00
2018-07-22T03:06:31.673Z,0.00
2018-07-22T03:07:31.854Z,0.00
2018-07-22T03:08:32.029Z,0.00
2018-07-22T03:09:32.212Z,0.00
2018-07-22T03:10:32.389Z,0.00
2018-07-22T03:11:32.574Z,0.00
2018-07-22T03:12:32.750Z,0.00
2018-07-22T03:13:32.925Z,0.00
2018-07-22T03:14:33.106Z,0.00
2018-07-22T03:15:33.282Z,0.00
2018-07-22T03:16:33.463Z,0.00
2018-07-22T03:17:33.640Z,0.00
2018-07-22T03:18:33.817Z,0.00
2018-07-22T03:19:33.997Z,0.00
2018-07-22T03:20:34.174Z,0.00
2018-07-22T03:21:34.355Z,4.00
2018-07-22T03:22:34.529Z,4.00
2018-07-22T03:23:34.707Z,4.00
2018-07-22T03:24:34.887Z,4.00
2018-07-22T03:25:35.065Z,4.00
2018-07-22T03:26:35.238Z,0.00
2018-07-22T03:27:35.412Z,4.00
2018-07-22T03:28:35.589Z,4.00
2018-07-22T03:29:35.762Z,4.00
2018-07-22T03:30:35.939Z,4.00
2018-07-22T03:31:36.115Z,8.00
2018-07-22T03:32:36.297Z,4.00
2018-07-22T03:33:36.467Z,8.00
2018-07-22T03:34:36.651Z,8.00
2018-07-22T03:35:36.827Z,8.00
2018-07-22T03:36:37.003Z,12.00
2018-07-22T03:37:37.174Z,8.00
2018-07-22T03:38:37.355Z,8.00
2018-07-22T03:39:37.534Z,8.00
2018-07-22T03:40:37.708Z,12.00
2018-07-22T03:41:37.883Z,12.00
2018-07-22T03:42:38.064Z,12.00
2018-07-22T03:43:38.241Z,12.00
2018-07-22T03:44:38.418Z,16.00
2018-07-22T03:45:38.594Z,12.00
2018-07-22T03:46:38.775Z,12.00
2018-07-22T03:47:38.952Z,16.00
2018-07-22T03:48:39.132Z,16.00
2018-07-22T03:49:39.308Z,16.00
2018-07-22T03:50:39.478Z,16.00
2018-07-22T03:51:39.657Z,20.00
2018-07-22T03:52:39.836Z,20.00
2018-07-22T03:53:40.018Z,20.00
2018-07-22T03:54:40.197Z,24.00
2018-07-22T03:55:40.374Z,28.00
2018-07-22T03:56:40.551Z,28.00
2018-07-22T03:57:40.727Z,28.00
2018-07-22T03:58:40.903Z,32.00
2018-07-22T03:59:41.084Z,36.00
2018-07-22T04:00:41.259Z,36.00
2018-07-22T04:01:41.456Z,40.00
2018-07-22T04:02:41.637Z,40.00
2018-07-22T04:03:41.796Z,40.00
2018-07-22T04:04:41.969Z,44.00
2018-07-22T04:05:42.150Z,48.00
2018-07-22T04:06:42.325Z,48.00
2018-07-22T04:07:42.508Z,52.00
2018-07-22T04:08:42.680Z,56.00
2018-07-22T04:09:42.851Z,60.00
2018-07-22T04:10:43.032Z,60.00
2018-07-22T04:11:43.199Z,68.00
2018-07-22T04:12:43.381Z,72.00
2018-07-22T04:13:43.559Z,76.00
2018-07-22T04:14:43.737Z,80.00
2018-07-22T04:15:43.906Z,84.00
2018-07-22T04:16:44.093Z,84.00
2018-07-22T04:17:44.282Z,88.00
2018-07-22T04:18:44.457Z,92.00
2018-07-22T04:19:44.637Z,100.00
2018-07-22T04:20:44.816Z,100.00
2018-07-22T04:21:44.995Z,104.00
2018-07-22T04:22:45.218Z,108.00
2018-07-22T04:23:45.351Z,108.00
2018-07-22T04:24:45.533Z,108.00
2018-07-22T04:25:45.704Z,112.00
2018-07-22T04:26:45.887Z,112.00
2018-07-22T04:27:46.062Z,120.00
2018-07-22T04:28:46.258Z,120.00
2018-07-22T04:29:46.416Z,124.00
2018-07-22T04:30:46.595Z,124.00
2018-07-22T04:31:46.769Z,128.00
2018-07-22T04:32:46.950Z,132.00
2018-07-22T04:33:47.131Z,132.00
2018-07-22T04:34:47.312Z,136.00
2018-07-22T04:35:47.493Z,140.00
2018-07-22T04:36:48.673Z,140.00
2018-07-22T04:37:47.888Z,140.00
2018-07-22T04:38:48.068Z,140.00
2018-07-22T04:39:48.270Z,144.00
2018-07-22T04:40:48.493Z,140.00
2018-07-22T04:41:48.620Z,144.00
2018-07-22T04:42:48.799Z,144.00
2018-07-22T04:43:48.977Z,148.00
2018-07-22T04:44:49.161Z,152.00
2018-07-22T04:45:49.339Z,152.00
2018-07-22T04:46:49.528Z,152.00
2018-07-22T04:47:49.705Z,156.00
2018-07-22T04:48:49.904Z,160.00
2018-07-22T04:49:50.084Z,160.00
2018-07-22T04:50:50.261Z,168.00
2018-07-22T04:51:50.437Z,172.00
2018-07-22T04:52:50.608Z,176.00
2018-07-22T04:53:50.795Z,180.00
2018-07-22T04:54:54.753Z,184.00
2018-07-22T04:55:51.131Z,188.00
2018-07-22T04:56:51.308Z,188.00
2018-07-22T04:57:51.479Z,188.00
2018-07-22T04:58:51.658Z,192.00
2018-07-22T04:59:51.833Z,188.00
2018-07-22T05:00:52.015Z,188.00
2018-07-22T05:01:52.197Z,188.00
2018-07-22T05:02:52.382Z,188.00
2018-07-22T05:03:52.566Z,188.00
2018-07-22T05:04:52.749Z,188.00
2018-07-22T05:05:52.928Z,188.00
2018-07-22T05:06:53.172Z,192.00
2018-07-22T05:07:53.282Z,196.00
2018-07-22T05:08:53.460Z,208.00
2018-07-22T05:09:53.635Z,220.00
2018-07-22T05:10:53.812Z,228.00
2018-07-22T05:11:53.991Z,240.00
2018-07-22T05:12:54.172Z,244.00
2018-07-22T05:13:54.342Z,252.00
2018-07-22T05:14:54.525Z,252.00
2018-07-22T05:15:54.710Z,256.00
2018-07-22T05:16:56.268Z,248.00
2018-07-22T05:17:56.404Z,248.00
2018-07-22T05:18:56.891Z,240.00
2018-07-22T05:19:57.528Z,236.00
2018-07-22T05:20:57.022Z,236.00
2018-07-22T05:21:56.280Z,236.00
2018-07-22T05:22:56.391Z,240.00
2018-07-22T05:23:57.479Z,248.00
2018-07-22T05:24:57.592Z,260.00
2018-07-22T05:25:56.353Z,276.00
2018-07-22T05:26:56.551Z,292.00
2018-07-22T05:27:56.740Z,312.00
2018-07-22T05:28:56.919Z,332.00
2018-07-22T05:29:57.113Z,348.00
2018-07-22T05:30:57.281Z,368.00
2018-07-22T05:31:57.484Z,392.00
2018-07-22T05:32:57.667Z,412.00
2018-07-22T05:33:57.890Z,428.00
2018-07-22T05:34:58.042Z,440.00
2018-07-22T05:35:58.469Z,448.00
2018-07-22T05:36:58.695Z,448.00
2018-07-22T05:37:58.791Z,444.00
2018-07-22T05:38:58.959Z,432.00
2018-07-22T05:40:00.284Z,420.00
2018-07-22T05:41:00.486Z,404.00
2018-07-22T05:42:00.205Z,392.00
2018-07-22T05:43:03.762Z,364.00
2018-07-22T05:44:02.510Z,328.00
2018-07-22T05:45:01.113Z,328.00
2018-07-22T05:46:00.909Z,348.00
2018-07-22T05:47:01.626Z,380.00
2018-07-22T05:48:06.507Z,420.00
2018-07-22T05:49:02.786Z,472.00
2018-07-22T05:50:02.346Z,544.00
2018-07-22T05:51:03.603Z,584.00
2018-07-22T05:52:00.736Z,604.00
2018-07-22T05:53:00.887Z,616.00
2018-07-22T05:54:01.084Z,664.00
2018-07-22T05:55:01.255Z,716.00
2018-07-22T05:56:01.433Z,720.00
2018-07-22T05:57:01.639Z,704.00
2018-07-22T05:58:01.821Z,708.00
2018-07-22T05:59:02.001Z,700.00
2018-07-22T06:00:02.189Z,672.00
2018-07-22T06:01:02.370Z,648.00
2018-07-22T06:02:02.567Z,628.00
2018-07-22T06:03:02.761Z,604.00
2018-07-22T06:04:02.922Z,592.00
2018-07-22T06:05:03.101Z,584.00
2018-07-22T06:06:03.282Z,576.00
2018-07-22T06:07:03.463Z,572.00
2018-07-22T06:08:03.642Z,568.00
2018-07-22T06:09:05.177Z,572.00
2018-07-22T06:10:07.529Z,580.00
2018-07-22T06:11:04.118Z,588.00
2018-07-22T06:12:04.302Z,600.00
2018-07-22T06:13:04.472Z,624.00
2018-07-22T06:14:04.647Z,644.00
2018-07-22T06:15:04.822Z,668.00
2018-07-22T06:16:04.999Z,700.00
2018-07-22T06:17:05.184Z,724.00
2018-07-22T06:18:05.359Z,748.00
2018-07-22T06:19:05.528Z,776.00
2018-07-22T06:20:05.706Z,796.00
2018-07-22T06:21:05.884Z,816.00
2018-07-22T06:22:06.067Z,836.00
2018-07-22T06:23:06.249Z,860.00
2018-07-22T06:24:06.434Z,880.00
2018-07-22T06:25:06.603Z,900.00
2018-07-22T06:26:06.775Z,924.00
2018-07-22T06:27:06.954Z,952.00
2018-07-22T06:28:07.131Z,984.00
2018-07-22T06:29:07.305Z,1020.00
2018-07-22T06:30:07.486Z,1064.00
2018-07-22T06:31:07.664Z,1108.00
2018-07-22T06:32:07.847Z,1156.00
2018-07-22T06:33:08.044Z,1208.00
2018-07-22T06:34:08.206Z,1256.00
2018-07-22T06:35:08.411Z,1300.00
2018-07-22T06:36:08.557Z,1328.00
2018-07-22T06:37:08.742Z,1352.00
2018-07-22T06:38:08.917Z,1364.00
2018-07-22T06:39:09.092Z,1376.00
2018-07-22T06:40:09.271Z,1400.00
2018-07-22T06:41:09.463Z,1428.00
2018-07-22T06:42:09.630Z,1464.00
2018-07-22T06:43:09.820Z,1500.00
2018-07-22T06:44:10.186Z,1536.00
2018-07-22T06:45:10.169Z,1568.00
2018-07-22T06:46:10.380Z,1592.00
2018-07-22T06:47:10.522Z,1616.00
2018-07-22T06:48:10.693Z,1624.00
2018-07-22T06:49:10.870Z,1628.00
2018-07-22T06:50:11.050Z,1632.00
2018-07-22T06:51:11.227Z,1624.00
2018-07-22T06:52:11.408Z,1628.00
2018-07-22T06:53:11.589Z,1644.00
2018-07-22T06:54:11.819Z,1664.00
2018-07-22T06:55:11.943Z,1692.00
2018-07-22T06:56:12.121Z,1724.00
2018-07-22T06:57:12.357Z,1760.00
2018-07-22T06:58:12.485Z,1792.00
2018-07-22T06:59:12.666Z,1828.00
2018-07-22T07:00:12.844Z,1852.00
2018-07-22T07:01:13.029Z,1880.00
2018-07-22T07:02:15.430Z,1904.00
2018-07-22T07:03:16.960Z,1928.00
2018-07-22T07:04:16.290Z,1944.00
2018-07-22T07:05:16.638Z,1952.00
2018-07-22T07:06:15.788Z,1956.00
2018-07-22T07:07:16.934Z,1956.00
2018-07-22T07:08:16.897Z,1952.00
2018-07-22T07:09:17.511Z,1960.00
2018-07-22T07:10:15.941Z,1960.00
2018-07-22T07:11:18.931Z,1960.00
2018-07-22T07:12:17.691Z,1968.00
2018-07-22T07:13:15.818Z,1972.00
2018-07-22T07:14:16.480Z,1972.00
2018-07-22T07:15:16.870Z,1976.00
2018-07-22T07:16:16.425Z,1980.00
2018-07-22T07:17:17.310Z,1988.00
2018-07-22T07:18:17.078Z,1996.00
2018-07-22T07:19:15.784Z,2004.00
2018-07-22T07:20:15.986Z,2012.00
2018-07-22T07:21:16.180Z,2024.00
2018-07-22T07:22:16.352Z,2032.00
2018-07-22T07:23:16.541Z,2040.00
2018-07-22T07:24:16.723Z,2044.00
2018-07-22T07:25:16.968Z,2048.00
2018-07-22T07:26:17.435Z,2060.00
2018-07-22T07:27:17.308Z,2072.00
2018-07-22T07:28:17.499Z,2088.00
2018-07-22T07:29:17.688Z,2116.00
2018-07-22T07:30:17.859Z,2140.00
2018-07-22T07:31:18.697Z,2168.00
2018-07-22T07:32:18.197Z,2204.00
2018-07-22T07:33:18.391Z,2244.00
2018-07-22T07:34:18.605Z,2292.00
2018-07-22T07:35:18.749Z,2348.00
2018-07-22T07:36:18.929Z,2416.00
2018-07-22T07:37:19.115Z,2468.00
2018-07-22T07:38:19.311Z,2524.00
2018-07-22T07:39:19.514Z,2584.00
2018-07-22T07:40:19.700Z,2632.00
2018-07-22T07:41:19.870Z,2672.00
2018-07-22T07:42:20.120Z,2720.00
2018-07-22T07:43:20.274Z,2752.00
2018-07-22T07:44:20.468Z,2776.00
2018-07-22T07:45:20.838Z,2800.00
2018-07-22T07:46:21.281Z,2828.00
2018-07-22T07:47:21.332Z,2848.00
2018-07-22T07:48:21.575Z,2856.00
2018-07-22T07:49:21.437Z,2848.00
2018-07-22T07:50:21.457Z,2860.00
2018-07-22T07:51:21.652Z,2888.00
2018-07-22T07:52:21.837Z,2908.00
2018-07-22T07:53:22.059Z,2924.00
2018-07-22T07:54:22.215Z,2964.00
2018-07-22T07:55:22.402Z,3028.00
2018-07-22T07:56:22.593Z,3080.00
2018-07-22T07:57:22.846Z,3096.00
2018-07-22T07:58:22.940Z,3116.00
2018-07-22T07:59:23.126Z,3144.00
2018-07-22T08:00:23.334Z,3176.00
2018-07-22T08:01:23.499Z,3220.00
2018-07-22T08:02:23.698Z,3260.00
2018-07-22T08:03:24.107Z,3316.00
2018-07-22T08:04:24.036Z,3384.00
2018-07-22T08:05:24.206Z,3468.00
2018-07-22T08:06:24.385Z,3560.00
2018-07-22T08:07:24.559Z,3660.00
2018-07-22T08:08:24.771Z,3796.00
2018-07-22T08:09:24.974Z,3980.00
2018-07-22T08:10:25.369Z,4212.00
2018-07-22T08:11:25.324Z,4512.00
2018-07-22T08:12:25.505Z,4880.00
2018-07-22T08:13:25.689Z,5316.00
2018-07-22T08:14:25.872Z,5740.00
2018-07-22T08:15:27.347Z,6012.00
2018-07-22T08:16:26.246Z,6320.00
2018-07-22T08:17:26.427Z,6632.00
2018-07-22T08:18:26.844Z,6596.00
2018-07-22T08:19:26.799Z,6904.00
2018-07-22T08:20:26.978Z,7636.00
2018-07-22T08:21:27.218Z,8608.00
2018-07-22T08:22:27.349Z,9564.00
2018-07-22T08:23:27.543Z,9816.00
2018-07-22T08:24:27.807Z,10416.00
2018-07-22T08:25:27.952Z,11772.00
2018-07-22T08:26:27.994Z,15400.00
2018-07-22T08:27:28.814Z,17120.00
2018-07-22T08:28:28.976Z,12156.00
2018-07-22T08:29:28.680Z,10672.00
2018-07-22T08:30:29.503Z,9440.00
2018-07-22T08:31:30.775Z,9108.00
2018-07-22T08:32:29.588Z,8860.00
2018-07-22T08:33:30.270Z,8552.00
2018-07-22T08:34:30.423Z,8172.00
2018-07-22T08:35:31.040Z,8048.00
2018-07-22T08:36:30.659Z,8764.00
2018-07-22T08:37:31.896Z,9608.00
2018-07-22T08:38:31.627Z,9152.00
2018-07-22T08:39:31.447Z,8200.00
2018-07-22T08:40:32.249Z,7416.00
2018-07-22T08:41:30.941Z,6792.00
2018-07-22T08:42:32.029Z,6616.00
2018-07-22T08:43:31.063Z,6380.00
2018-07-22T08:44:32.276Z,6204.00
2018-07-22T08:45:32.722Z,6040.00
2018-07-22T08:46:32.197Z,6108.00
2018-07-22T08:47:32.930Z,6348.00
2018-07-22T08:48:32.469Z,6592.00
2018-07-22T08:49:33.703Z,6940.00
2018-07-22T08:50:34.028Z,7432.00
2018-07-22T08:51:33.307Z,7828.00
2018-07-22T08:52:32.622Z,8192.00
2018-07-22T08:53:32.986Z,8760.00
2018-07-22T08:54:32.754Z,9188.00
2018-07-22T08:55:33.364Z,9700.00
2018-07-22T08:56:32.973Z,10128.00
2018-07-22T08:57:33.150Z,9536.00
2018-07-22T08:58:33.762Z,8948.00
2018-07-22T08:59:33.528Z,8628.00
2018-07-22T09:00:33.716Z,8340.00
2018-07-22T09:01:33.903Z,8276.00
2018-07-22T09:02:34.296Z,8508.00
2018-07-22T09:03:34.813Z,8784.00
2018-07-22T09:04:34.542Z,9180.00
2018-07-22T09:05:34.679Z,9584.00
2018-07-22T09:06:34.921Z,9952.00
2018-07-22T09:07:34.980Z,10148.00
2018-07-22T09:08:35.165Z,10396.00
2018-07-22T09:09:35.347Z,11276.00
2018-07-22T09:10:37.113Z,9616.00
2018-07-22T09:11:35.747Z,8060.00
2018-07-22T09:12:35.923Z,7812.00
2018-07-22T09:13:36.968Z,7588.00
2018-07-22T09:14:36.454Z,7292.00
2018-07-22T09:15:36.733Z,7300.00
2018-07-22T09:16:36.630Z,7676.00
2018-07-22T09:17:36.950Z,8152.00
2018-07-22T09:18:38.484Z,8356.00
2018-07-22T09:19:37.141Z,8400.00
2018-07-22T09:20:37.857Z,8376.00
2018-07-22T09:21:37.636Z,8316.00
2018-07-22T09:22:38.249Z,8212.00
2018-07-22T09:23:37.810Z,8064.00
2018-07-22T09:24:38.120Z,7936.00
2018-07-22T09:25:38.223Z,7864.00
2018-07-22T09:26:38.385Z,7708.00
2018-07-22T09:27:38.683Z,7536.00
2018-07-22T09:28:39.100Z,7260.00
2018-07-22T09:29:38.910Z,6932.00
2018-07-22T09:30:39.169Z,6632.00
2018-07-22T09:31:40.102Z,6284.00
2018-07-22T09:32:40.182Z,5936.00
2018-07-22T09:33:40.106Z,5660.00
2018-07-22T09:34:40.179Z,5392.00
2018-07-22T09:35:40.008Z,5176.00
2018-07-22T09:36:40.263Z,5024.00
2018-07-22T09:37:40.405Z,4960.00
2018-07-22T09:38:40.596Z,4912.00
2018-07-22T09:39:40.827Z,4776.00
2018-07-22T09:40:41.023Z,4544.00
2018-07-22T09:41:41.140Z,4340.00
2018-07-22T09:42:41.305Z,4276.00
2018-07-22T09:43:41.478Z,4312.00
2018-07-22T09:44:41.671Z,4432.00
2018-07-22T09:45:42.446Z,4644.00
2018-07-22T09:46:42.130Z,4920.00
2018-07-22T09:47:42.204Z,5244.00
2018-07-22T09:48:42.406Z,5576.00
2018-07-22T09:49:42.597Z,5872.00
2018-07-22T09:50:43.064Z,6108.00
2018-07-22T09:51:42.997Z,6324.00
2018-07-22T09:52:43.181Z,6568.00
2018-07-22T09:53:43.432Z,6824.00
2018-07-22T09:54:43.622Z,7024.00
2018-07-22T09:55:45.412Z,7204.00
2018-07-22T09:56:43.837Z,7380.00
2018-07-22T09:57:44.012Z,7520.00
2018-07-22T09:58:44.194Z,7648.00
2018-07-22T09:59:44.496Z,7772.00
2018-07-22T10:00:44.562Z,7920.00
2018-07-22T10:01:44.747Z,8120.00
2018-07-22T10:02:44.827Z,8336.00
2018-07-22T10:03:45.007Z,8540.00
2018-07-22T10:04:45.221Z,8748.00
2018-07-22T10:05:45.374Z,8900.00
2018-07-22T10:06:45.554Z,9076.00
2018-07-22T10:07:45.795Z,9256.00
2018-07-22T10:08:46.015Z,9368.00
2018-07-22T10:09:48.533Z,9468.00
2018-07-22T10:10:49.341Z,9604.00
2018-07-22T10:11:47.501Z,9768.00
2018-07-22T10:12:50.035Z,9932.00
2018-07-22T10:13:47.651Z,10144.00
2018-07-22T10:14:47.125Z,10360.00
2018-07-22T10:15:47.230Z,10516.00
2018-07-22T10:16:47.411Z,10744.00
2018-07-22T10:17:47.596Z,10916.00
2018-07-22T10:18:47.780Z,11036.00
2018-07-22T10:19:47.954Z,11124.00
2018-07-22T10:20:48.134Z,11184.00
2018-07-22T10:21:48.322Z,11224.00
2018-07-22T10:22:48.502Z,11256.00
2018-07-22T10:23:48.692Z,11204.00
2018-07-22T10:24:48.860Z,11116.00
2018-07-22T10:25:49.047Z,11012.00
2018-07-22T10:26:49.232Z,10940.00
2018-07-22T10:27:49.413Z,10896.00
2018-07-22T10:28:49.597Z,10816.00
2018-07-22T10:29:49.778Z,10752.00
2018-07-22T10:30:49.951Z,10704.00
2018-07-22T10:31:50.132Z,10688.00
2018-07-22T10:32:50.309Z,10648.00
2018-07-22T10:33:50.496Z,10564.00
2018-07-22T10:34:50.686Z,10420.00
2018-07-22T10:35:50.931Z,10228.00
2018-07-22T10:36:51.044Z,10016.00
2018-07-22T10:37:51.227Z,9764.00
2018-07-22T10:38:51.408Z,9528.00
2018-07-22T10:39:51.593Z,9360.00
2018-07-22T10:40:51.800Z,9260.00
2018-07-22T10:41:52.077Z,9260.00
2018-07-22T10:42:52.202Z,9268.00
2018-07-22T10:43:52.382Z,9276.00
2018-07-22T10:44:52.558Z,9300.00
2018-07-22T10:45:52.737Z,9336.00
2018-07-22T10:46:52.929Z,9380.00
2018-07-22T10:47:53.108Z,9420.00
2018-07-22T10:48:53.287Z,9444.00
2018-07-22T10:49:53.470Z,9500.00
2018-07-22T10:50:53.711Z,9512.00
2018-07-22T10:51:53.841Z,9520.00
2018-07-22T10:52:54.018Z,9528.00
2018-07-22T10:53:54.201Z,9580.00
2018-07-22T10:54:54.387Z,9684.00
2018-07-22T10:55:54.571Z,9820.00
2018-07-22T10:56:54.971Z,9988.00
2018-07-22T10:57:54.950Z,10128.00
2018-07-22T10:58:55.137Z,10264.00
2018-07-22T10:59:55.326Z,10364.00
2018-07-22T11:00:55.517Z,10448.00
2018-07-22T11:01:55.706Z,10572.00
2018-07-22T11:02:55.900Z,10680.00
2018-07-22T11:03:56.073Z,10804.00
2018-07-22T11:04:56.260Z,10956.00
2018-07-22T11:05:56.444Z,11108.00
2018-07-22T11:06:56.626Z,11228.00
2018-07-22T11:07:56.806Z,11276.00
2018-07-22T11:08:56.986Z,11296.00
2018-07-22T11:09:58.812Z,11324.00
2018-07-22T11:10:59.132Z,11336.00
2018-07-22T11:11:58.859Z,11348.00
2018-07-22T11:12:59.935Z,11352.00
2018-07-22T11:13:58.143Z,11364.00
2018-07-22T11:14:59.916Z,11380.00
2018-07-22T11:15:59.476Z,11300.00
2018-07-22T11:17:01.935Z,11072.00
2018-07-22T11:17:58.514Z,10732.00
2018-07-22T11:19:00.472Z,10428.00
2018-07-22T11:19:58.917Z,10216.00
2018-07-22T11:20:59.166Z,9972.00
2018-07-22T11:21:59.318Z,9744.00
2018-07-22T11:22:59.492Z,9572.00
2018-07-22T11:23:59.719Z,9420.00
2018-07-22T11:25:00.251Z,9316.00
2018-07-22T11:26:00.093Z,9248.00
2018-07-22T11:27:00.348Z,9264.00
2018-07-22T11:28:01.371Z,9380.00
2018-07-22T11:29:00.914Z,9528.00
2018-07-22T11:30:01.493Z,9664.00
2018-07-22T11:31:01.019Z,9780.00
2018-07-22T11:32:01.107Z,9932.00
2018-07-22T11:33:01.300Z,10008.00
2018-07-22T11:34:01.520Z,10004.00
2018-07-22T11:35:01.732Z,9976.00
2018-07-22T11:36:01.863Z,9852.00
2018-07-22T11:37:02.188Z,9584.00
2018-07-22T11:38:02.193Z,9136.00
2018-07-22T11:39:02.791Z,8596.00
2018-07-22T11:40:03.814Z,8080.00
2018-07-22T11:41:02.842Z,7656.00
2018-07-22T11:42:03.027Z,7376.00
2018-07-22T11:43:03.234Z,7224.00
2018-07-22T11:44:03.402Z,7116.00
2018-07-22T11:45:03.599Z,6920.00
2018-07-22T11:46:04.188Z,6696.00
2018-07-22T11:47:04.073Z,6504.00
2018-07-22T11:48:04.144Z,6412.00
2018-07-22T11:49:04.323Z,6456.00
2018-07-22T11:50:04.689Z,6532.00
2018-07-22T11:51:04.709Z,6500.00
2018-07-22T11:52:04.794Z,6448.00
2018-07-22T11:53:05.052Z,6236.00
2018-07-22T11:54:05.250Z,5932.00
2018-07-22T11:55:05.402Z,6036.00
2018-07-22T11:56:05.801Z,6144.00
2018-07-22T11:57:05.774Z,6128.00
2018-07-22T11:58:05.969Z,6072.00
2018-07-22T11:59:06.189Z,5988.00
2018-07-22T12:00:06.426Z,5904.00
2018-07-22T12:01:06.557Z,5848.00
2018-07-22T12:02:06.861Z,5800.00
2018-07-22T12:03:06.948Z,5736.00
2018-07-22T12:04:09.444Z,5632.00
2018-07-22T12:05:07.347Z,5476.00
2018-07-22T12:06:07.642Z,5300.00
2018-07-22T12:07:07.687Z,5076.00
2018-07-22T12:08:08.893Z,4892.00
2018-07-22T12:09:08.085Z,4768.00
2018-07-22T12:10:08.392Z,4656.00
2018-07-22T12:11:08.488Z,4540.00
2018-07-22T12:12:09.527Z,4448.00
2018-07-22T12:13:09.488Z,4396.00
2018-07-22T12:14:09.986Z,4356.00
2018-07-22T12:15:09.920Z,4352.00
2018-07-22T12:16:10.177Z,4332.00
2018-07-22T12:17:09.824Z,4312.00
2018-07-22T12:18:10.516Z,4288.00
2018-07-22T12:19:10.750Z,4288.00
2018-07-22T12:20:10.584Z,4284.00
2018-07-22T12:21:11.052Z,4268.00
2018-07-22T12:22:10.517Z,4244.00
2018-07-22T12:23:11.096Z,4220.00
2018-07-22T12:24:10.715Z,4204.00
2018-07-22T12:25:10.908Z,4192.00
2018-07-22T12:26:11.081Z,4200.00
2018-07-22T12:27:11.310Z,4212.00
2018-07-22T12:28:11.488Z,4244.00
2018-07-22T12:29:11.659Z,4288.00
2018-07-22T12:30:11.912Z,4316.00
2018-07-22T12:31:11.965Z,4344.00
2018-07-22T12:32:12.146Z,4372.00
2018-07-22T12:33:12.361Z,4396.00